< Typhoon 198121 1981 Season Typhoon 198123 >
Typhoon 198122 (ELSIE)
General InformationTrack Information on Google MapsDetailed Wind InformationList of All Images || Disaster Info.ResourceGoogle EarthGE AnimationAtom FeedGeoJSON
Detalied Best Track (Time Zone = UTC)
Year Month Day Hour Lat. Long. Pressure (hPa) Wind (kt) Class Image Chart
1981 9 23 18 10.0 147.0 1004 0 2 Image Chart
1981 9 24 00 10.2 146.6 1004 0 2 Image Chart
1981 9 24 06 10.5 146.0 1004 0 2 Image Chart
1981 9 24 12 10.8 145.3 1000 0 2 Image Chart
1981 9 24 18 11.1 144.7 998 0 2 Image Chart
1981 9 25 00 11.5 144.0 996 0 2 Image Chart
1981 9 25 06 11.8 143.1 990 40 3 Image Chart
1981 9 25 12 12.1 142.2 985 50 4 Image Chart
1981 9 25 18 12.3 141.4 980 50 4 Image Chart
1981 9 26 00 12.5 140.4 970 70 5 Image Chart
1981 9 26 06 13.0 139.3 965 70 5 Image Chart
1981 9 26 12 13.3 138.3 955 75 5 Image Chart
1981 9 26 18 13.6 137.6 940 80 5 Image Chart
1981 9 27 00 14.0 137.0 925 100 5 Image Chart
1981 9 27 06 14.7 136.9 905 110 5 Image Chart
1981 9 27 12 15.3 136.5 900 110 5 Image Chart
1981 9 27 18 16.1 135.7 895 110 5 Image Chart
1981 9 28 00 16.7 135.3 895 120 5 Image Chart
1981 9 28 06 17.1 135.0 895 120 5 Image Chart
1981 9 28 12 17.8 134.6 895 110 5 Image Chart
1981 9 28 18 18.6 134.3 895 110 5 Image Chart
1981 9 29 00 19.7 133.7 895 110 5 Image Chart
1981 9 29 06 20.5 133.2 895 110 5 Image Chart
1981 9 29 12 21.4 132.6 905 110 5 Image Chart
1981 9 29 18 22.3 132.1 910 110 5 Image Chart
1981 9 30 00 23.3 132.0 915 110 5 Image Chart
1981 9 30 06 24.4 131.7 920 100 5 Image Chart
1981 9 30 12 25.5 132.0 925 90 5 Image Chart
1981 9 30 18 26.7 132.7 930 90 5 Image Chart
1981 10 1 00 27.6 133.6 940 90 5 Image Chart
1981 10 1 06 28.8 135.3 940 90 5 Image Chart
1981 10 1 12 30.2 137.3 940 90 5 Image Chart
1981 10 1 18 31.7 139.9 940 90 5 Image Chart
1981 10 2 00 33.4 143.8 950 70 5 Image Chart
1981 10 2 06 35.5 148.5 950 65 5 Image Chart
1981 10 2 12 38.5 152.5 950 65 5 Image Chart
1981 10 2 18 42.0 155.0 950 0 6 Image Chart
1981 10 3 00 46.0 155.0 946 0 6 Image Chart
1981 10 3 06 47.5 154.0 940 0 6 Image Chart
1981 10 3 12 48.0 155.0 940 0 6 Image Chart
1981 10 3 18 49.0 155.5 940 0 6 Image Chart
1981 10 4 00 50.0 155.5 946 0 6 Image Chart
1981 10 4 06 50.5 156.0 952 0 6 Image Chart
1981 10 4 12 51.3 157.0 964 0 6 Image Chart
1981 10 4 18 52.5 157.0 976 0 6 Image Chart
1981 10 5 00 53.5 157.0 980 0 6 Image Chart
1981 10 5 06 54.5 156.5 984 0 6 Image Chart
1981 10 5 12 56.0 155.0 988 0 6 Image Chart
1981 10 5 18 56.2 154.5 992 0 6 Image Chart
1981 10 6 00 56.5 154.0 994 0 6 Image Chart
1981 10 6 06 56.6 153.5 996 0 6 Image Chart
1981 10 6 12 56.3 153.0 998 0 6 Image Chart
1981 10 6 18 56.0 153.0 998 0 6 Image Chart
Japan Meteorological Agency Best Track Data | Correction Date : 1992-10-21
< Typhoon 198121 1981 Season Typhoon 198123 >

Help